Time;durP1;ratioP1;P1;durP2;ratioP2;P2;SDS_P1;SDS_P2;PMS_P1;PMS_P2;Temp;Humidity;BMP_temperature;BMP_pressure;BME280_temperature;BME280_humidity;BME280_pressure;Samples;Min_cycle;Max_cycle;Signal;HPM_P1;HPM_P2
2022/10/12 00:01:40;;;;;;;13.57;10.90;;;11.30;99.90;;;10.76;100.00;97916.88;4953374;28;20107;-43
2022/10/12 00:04:06;;;;;;;15.65;11.25;;;11.20;99.90;;;10.73;100.00;97909.06;4961927;28;20044;-42
2022/10/12 00:06:32;;;;;;;15.90;11.23;;;11.20;99.90;;;10.71;100.00;97917.00;4951610;28;20034;-43
2022/10/12 00:08:58;;;;;;;16.05;10.43;;;11.10;99.90;;;10.66;100.00;97909.25;4952027;28;20137;-42
2022/10/12 00:11:27;;;;;;;13.55;11.10;;;11.10;99.90;;;10.65;100.00;97917.19;4954392;28;20054;-42
2022/10/12 00:13:54;;;;;;;18.42;10.88;;;11.10;99.90;;;10.55;100.00;97911.34;4966535;28;20105;-44
2022/10/12 00:16:22;;;;;;;16.58;11.75;;;11.10;99.90;;;10.52;100.00;97916.69;4964158;28;20034;-42
2022/10/12 00:18:55;;;;;;;17.33;10.60;;;11.00;99.90;;;10.46;100.00;97916.84;4940569;28;20031;-42
2022/10/12 00:21:23;;;;;;;16.02;11.50;;;10.90;99.90;;;10.41;100.00;97916.09;4956231;28;20089;-42
2022/10/12 00:23:48;;;;;;;17.23;11.70;;;10.80;99.90;;;10.35;100.00;97918.94;4957273;28;20041;-42
2022/10/12 00:26:21;;;;;;;19.67;11.43;;;10.80;99.90;;;10.31;100.00;97918.16;4954919;28;20038;-42
2022/10/12 00:28:47;;;;;;;;;;;10.80;99.90;;;10.26;100.00;97918.22;4961068;28;20061;-42
2022/10/12 00:31:17;;;;;;;19.00;11.98;;;10.70;99.90;;;10.24;100.00;97920.03;4969838;28;19928;-42
2022/10/12 00:33:44;;;;;;;16.83;11.43;;;10.70;99.90;;;10.22;100.00;97918.38;4957425;28;20507;-42
2022/10/12 00:36:25;;;;;;;18.50;11.73;;;10.70;99.90;;;10.22;100.00;97913.97;4962636;28;20065;-42
2022/10/12 00:38:54;;;;;;;17.67;11.65;;;10.70;99.90;;;10.17;100.00;97897.41;4956335;28;20026;-42
2022/10/12 00:41:24;;;;;;;17.85;11.60;;;10.70;99.90;;;10.25;100.00;97899.84;4961560;28;20030;-42
2022/10/12 00:43:50;;;;;;;16.50;12.13;;;10.70;99.90;;;10.18;100.00;97885.09;4977499;28;21016;-42
2022/10/12 00:46:35;;;;;;;19.98;12.55;;;10.70;99.90;;;10.23;100.00;97896.38;4969327;28;20073;-42
2022/10/12 00:49:22;;;;;;;17.60;12.20;;;10.80;99.90;;;10.28;100.00;97902.38;4943044;28;20097;-42
2022/10/12 00:51:53;;;;;;;18.77;11.63;;;10.80;99.90;;;10.27;100.00;97906.78;4939759;28;20046;-42
2022/10/12 00:54:25;;;;;;;16.35;12.45;;;10.80;99.90;;;10.27;100.00;97900.66;4934811;28;21015;-42
2022/10/12 00:56:54;;;;;;;21.83;13.27;;;10.70;99.90;;;10.26;100.00;97904.19;4951923;28;20054;-42
2022/10/12 00:59:29;;;;;;;20.65;13.65;;;10.70;99.90;;;10.24;100.00;97900.75;4956453;28;20124;-42
2022/10/12 01:01:55;;;;;;;21.98;12.43;;;10.70;99.90;;;10.22;100.00;97907.84;4954778;28;20026;-42
2022/10/12 01:04:22;;;;;;;19.30;12.27;;;10.70;99.90;;;10.20;100.00;97904.38;4962011;28;21277;-41
2022/10/12 01:06:47;;;;;;;17.27;12.98;;;10.60;99.90;;;9.84;100.00;97850.00;4960281;28;20065;-42
2022/10/12 01:09:14;;;;;;;17.75;12.70;;;10.60;99.90;;;10.16;100.00;97903.59;4956831;28;20038;-42
2022/10/12 01:11:39;;;;;;;21.67;13.50;;;10.60;99.90;;;10.08;100.00;97900.28;4938540;28;20369;-42
2022/10/12 01:14:05;;;;;;;21.83;13.20;;;10.60;99.90;;;10.09;100.00;97904.66;4970408;28;20079;-41
2022/10/12 01:16:49;;;;;;;17.17;12.75;;;10.60;99.90;;;10.06;100.00;97912.66;4933661;28;20034;-42
2022/10/12 01:19:53;;;;;;;18.83;12.95;;;10.50;99.90;;;10.04;100.00;97910.03;4960102;28;20101;-41
2022/10/12 01:22:20;;;;;;;15.55;13.20;;;10.60;99.90;;;10.04;100.00;97909.19;4964267;28;20285;-42
2022/10/12 01:25:27;;;;;;;18.15;12.63;;;10.50;99.90;;;10.02;100.00;97911.88;4939081;28;20040;-42
2022/10/12 01:28:35;;;;;;;18.15;12.70;;;10.50;99.90;;;9.99;100.00;97906.66;4941809;28;20125;-42
2022/10/12 01:31:14;;;;;;;18.20;12.80;;;10.50;99.90;;;10.00;100.00;97910.19;4959427;28;20713;-42
2022/10/12 01:33:49;;;;;;;16.00;12.43;;;10.50;99.90;;;9.98;100.00;97904.97;4945760;28;20022;-42
2022/10/12 01:36:21;;;;;;;16.63;11.77;;;10.50;99.90;;;10.01;100.00;97901.34;4955268;28;20498;-42
2022/10/12 01:39:16;;;;;;;19.55;11.63;;;10.50;99.90;;;9.99;100.00;97893.50;4958142;28;21000;-42
2022/10/12 01:41:57;;;;;;;19.90;12.52;;;10.40;99.90;;;9.99;100.00;97901.41;4953824;28;20030;-42
2022/10/12 01:44:25;;;;;;;18.90;12.20;;;10.50;99.90;;;9.98;100.00;97899.69;4971050;28;20049;-42
2022/10/12 01:46:54;;;;;;;20.20;13.25;;;10.50;99.90;;;9.93;100.00;97889.25;4972344;28;20125;-42
2022/10/12 01:49:24;;;;;;;18.50;12.25;;;10.40;99.90;;;9.93;100.00;97898.94;4963974;28;20488;-41
2022/10/12 01:52:15;;;;;;;20.42;12.85;;;10.40;99.90;;;9.89;100.00;97890.25;4947881;28;20069;-42
2022/10/12 01:54:55;;;;;;;21.00;13.40;;;10.40;99.90;;;9.85;100.00;97893.88;4950803;28;20200;-41
2022/10/12 01:57:34;;;;;;;22.02;14.00;;;10.40;99.90;;;9.84;100.00;97891.28;4960290;28;22932;-42
2022/10/12 02:00:10;;;;;;;18.77;13.15;;;10.30;99.90;;;9.83;100.00;97900.06;4950700;28;20049;-41
2022/10/12 02:03:18;;;;;;;19.05;12.48;;;10.30;99.90;;;9.80;100.00;97890.50;4952174;28;20097;-42
2022/10/12 02:06:02;;;;;;;17.17;13.20;;;10.30;99.90;;;9.78;100.00;97891.41;4946272;28;20057;-42
2022/10/12 02:08:56;;;;;;;22.27;13.40;;;10.30;99.90;;;9.75;100.00;97887.09;4967635;28;20127;-42
2022/10/12 02:11:25;;;;;;;22.17;14.43;;;10.30;99.90;;;9.67;100.00;97881.16;4936930;28;20026;-43
2022/10/12 02:13:59;;;;;;;18.45;13.18;;;10.20;99.90;;;9.51;100.00;97862.25;4964408;28;20027;-43
2022/10/12 02:16:32;;;;;;;21.85;14.07;;;10.20;99.90;;;9.63;100.00;97882.16;4950665;28;20038;-42
2022/10/12 02:18:59;;;;;;;19.80;13.93;;;10.10;99.90;;;9.50;100.00;97868.44;4935668;28;20036;-42
2022/10/12 02:21:31;;;;;;;21.65;14.90;;;10.10;99.90;;;9.55;100.00;97880.56;4954595;28;20476;-42
2022/10/12 02:24:03;;;;;;;19.40;13.63;;;10.00;99.90;;;9.49;100.00;97869.31;4954757;28;20030;-42
2022/10/12 02:26:31;;;;;;;25.58;14.57;;;10.00;99.90;;;9.47;100.00;97879.91;4935930;28;20496;-42
2022/10/12 02:29:00;;;;;;;19.98;14.02;;;10.00;99.90;;;9.48;100.00;97876.38;4937002;28;20056;-42
2022/10/12 02:31:34;;;;;;;22.92;15.23;;;10.00;99.90;;;9.44;100.00;97887.00;4935571;28;20123;-42
2022/10/12 02:34:21;;;;;;;22.60;14.00;;;9.90;99.90;;;9.31;100.00;97865.38;4941473;28;20038;-42
2022/10/12 02:37:03;;;;;;;21.40;14.23;;;9.90;99.90;;;9.32;100.00;97865.34;4945506;28;20172;-42
2022/10/12 02:39:37;;;;;;;19.05;14.18;;;9.90;99.90;;;9.40;100.00;97885.34;4958177;28;20385;-42
2022/10/12 02:42:11;;;;;;;21.58;14.27;;;9.90;99.90;;;9.43;100.00;97886.16;4940355;28;20040;-42
2022/10/12 02:44:39;;;;;;;19.67;14.63;;;9.90;99.90;;;9.35;100.00;97870.53;4963408;28;20040;-41
2022/10/12 02:47:08;;;;;;;21.70;14.50;;;10.00;99.90;;;9.53;100.00;97874.50;4937138;28;20077;-42
2022/10/12 02:49:35;;;;;;;23.70;15.90;;;10.10;99.90;;;9.62;100.00;97877.78;4935838;28;20046;-42
2022/10/12 02:52:03;;;;;;;24.85;15.23;;;10.10;99.90;;;9.67;100.00;97874.16;4953657;28;20062;-42
2022/10/12 02:54:29;;;;;;;27.27;15.35;;;10.20;99.90;;;9.72;100.00;97877.50;4961266;28;20031;-42
2022/10/12 02:56:55;;;;;;;23.52;14.60;;;10.20;99.90;;;9.79;100.00;97877.34;4952841;28;20034;-41
2022/10/12 02:59:21;;;;;;;22.42;14.70;;;10.30;99.90;;;9.82;100.00;97864.13;4950389;28;20037;-41
2022/10/12 03:01:46;;;;;;;21.20;15.30;;;10.30;99.90;;;9.87;100.00;97865.72;4948670;28;21602;-41
2022/10/12 03:04:12;;;;;;;26.77;16.55;;;10.40;99.90;;;9.96;100.00;97871.63;4954845;28;20882;-41
2022/10/12 03:06:38;;;;;;;24.90;16.65;;;10.40;99.90;;;10.02;100.00;97869.69;4957396;28;20038;-41
2022/10/12 03:09:04;;;;;;;25.27;15.15;;;10.50;99.90;;;10.08;100.00;97874.78;4962599;28;20026;-41
2022/10/12 03:11:30;;;;;;;30.45;18.02;;;10.60;99.90;;;10.15;100.00;97877.28;4953768;28;20097;-41
2022/10/12 03:13:57;;;;;;;24.42;16.63;;;10.70;99.90;;;10.18;100.00;97875.41;4967460;28;20049;-41
2022/10/12 03:16:23;;;;;;;24.13;16.25;;;10.70;99.90;;;10.24;100.00;97879.66;4967231;28;20030;-41
2022/10/12 03:18:50;;;;;;;24.50;16.42;;;10.80;99.90;;;10.18;100.00;97866.66;4972126;28;20034;-41
2022/10/12 03:21:15;;;;;;;24.80;17.20;;;10.80;99.90;;;10.29;100.00;97881.25;4969073;28;20038;-42
2022/10/12 03:23:41;;;;;;;24.23;18.20;;;10.80;99.90;;;10.34;100.00;97875.88;4974619;28;20041;-43
2022/10/12 03:26:07;;;;;;;25.58;15.95;;;10.80;99.90;;;10.37;100.00;97883.69;4995258;23;20070;-63
2022/10/12 03:28:34;;;;;;;23.00;15.98;;;10.90;99.90;;;10.38;100.00;97877.53;4989005;28;22668;-63
2022/10/12 03:31:00;;;;;;;23.08;16.20;;;10.90;99.90;;;10.40;100.00;97872.22;4976540;28;20055;-63
2022/10/12 03:33:26;;;;;;;23.33;16.23;;;10.90;99.90;;;10.43;100.00;97873.00;4973142;28;20029;-63
2022/10/12 03:35:51;;;;;;;22.67;14.77;;;10.90;99.90;;;10.48;100.00;97875.47;4972157;28;20072;-63
2022/10/12 03:38:18;;;;;;;29.15;16.67;;;11.00;99.90;;;10.44;100.00;97861.50;4942168;28;20460;-63
2022/10/12 03:40:45;;;;;;;20.73;15.52;;;11.00;99.90;;;10.53;100.00;97870.06;4934845;28;20632;-63
2022/10/12 03:43:11;;;;;;;22.38;16.10;;;11.00;99.90;;;10.54;100.00;97875.31;4956972;28;20050;-63
2022/10/12 03:45:37;;;;;;;21.40;15.45;;;11.00;99.90;;;10.54;100.00;97879.72;4963357;28;20046;-63
2022/10/12 03:48:04;;;;;;;25.40;16.48;;;11.00;99.90;;;10.53;100.00;97878.00;4966540;28;20038;-63
2022/10/12 03:50:32;;;;;;;27.58;16.15;;;11.00;99.90;;;10.51;100.00;97883.31;4943736;28;20045;-63
2022/10/12 03:52:58;;;;;;;21.83;15.32;;;11.00;99.90;;;10.45;100.00;97879.06;4946993;28;20362;-63
2022/10/12 03:55:23;;;;;;;23.67;16.13;;;10.90;99.90;;;10.37;100.00;97867.00;4947549;28;20554;-62
2022/10/12 03:57:49;;;;;;;23.20;15.45;;;10.90;99.90;;;10.27;100.00;97866.41;4952344;28;20752;-65
2022/10/12 04:00:15;;;;;;;23.67;15.55;;;10.80;99.90;;;10.21;100.00;97877.97;4940380;28;20038;-65
2022/10/12 04:02:41;;;;;;;19.95;14.85;;;10.70;99.90;;;10.13;100.00;97882.59;4943417;28;20569;-65
2022/10/12 04:05:07;;;;;;;20.98;15.80;;;10.60;99.90;;;10.07;100.00;97880.97;4940652;28;20038;-65
2022/10/12 04:07:33;;;;;;;20.98;15.32;;;10.60;99.90;;;10.05;100.00;97874.91;4949481;28;20126;-66
2022/10/12 04:09:59;;;;;;;21.60;14.68;;;10.50;99.90;;;10.04;100.00;97883.69;4951165;28;20391;-65
2022/10/12 04:12:24;;;;;;;24.85;15.82;;;10.50;99.90;;;10.04;100.00;97881.06;4943688;28;20050;-66
2022/10/12 04:14:50;;;;;;;23.58;15.55;;;10.50;99.90;;;10.02;100.00;97869.69;4938520;28;20479;-65
2022/10/12 04:17:16;;;;;;;19.73;14.98;;;10.50;99.90;;;10.04;100.00;97877.56;4946380;28;20043;-65
2022/10/12 04:19:43;;;;;;;26.98;16.15;;;10.50;99.90;;;10.11;100.00;97874.72;4926873;28;20054;-65
2022/10/12 04:22:09;;;;;;;22.80;15.45;;;10.60;99.90;;;10.18;100.00;97877.19;4948049;28;20100;-65
2022/10/12 04:24:35;;;;;;;25.40;16.95;;;10.60;99.90;;;10.20;100.00;97883.28;4936678;28;20407;-65
2022/10/12 04:27:00;;;;;;;20.58;15.10;;;10.70;99.90;;;10.27;100.00;97883.06;4949620;28;20042;-66
2022/10/12 04:29:26;;;;;;;25.00;15.15;;;10.70;99.90;;;10.33;100.00;97884.69;4965685;28;20117;-65
2022/10/12 04:31:52;;;;;;;22.77;15.43;;;10.80;99.90;;;10.38;100.00;97881.94;4964071;28;20433;-64
2022/10/12 04:34:18;;;;;;;25.80;16.35;;;10.90;99.90;;;10.43;100.00;97880.03;4946134;28;20019;-65
2022/10/12 04:36:44;;;;;;;22.52;15.18;;;10.90;99.90;;;10.51;100.00;97885.94;4962176;28;20196;-65
2022/10/12 04:39:10;;;;;;;23.75;15.77;;;11.00;99.90;;;10.58;100.00;97894.53;4959686;28;20117;-65
2022/10/12 04:41:36;;;;;;;21.48;14.68;;;11.10;99.90;;;10.63;100.00;97888.22;4959824;28;20046;-65
2022/10/12 04:44:01;;;;;;;22.88;14.55;;;11.10;99.90;;;10.68;100.00;97888.09;4962584;28;20150;-65
2022/10/12 04:46:27;;;;;;;18.20;13.90;;;11.20;99.90;;;10.76;100.00;97898.41;4963574;28;20118;-64
2022/10/12 04:48:53;;;;;;;18.08;13.85;;;11.20;99.90;;;10.79;100.00;97895.69;4965636;28;20468;-66
2022/10/12 04:51:19;;;;;;;21.88;13.63;;;11.30;99.90;;;10.82;100.00;97892.94;4967610;28;20077;-65
2022/10/12 04:53:44;;;;;;;19.58;14.30;;;11.30;99.90;;;10.84;100.00;97891.16;4964234;28;20038;-65
2022/10/12 04:56:10;;;;;;;19.48;12.02;;;11.30;99.90;;;10.89;100.00;97894.50;4968999;28;20165;-65
2022/10/12 04:58:36;;;;;;;17.80;13.43;;;11.40;99.90;;;10.78;100.00;97872.84;4962760;28;20057;-65
2022/10/12 05:01:02;;;;;;;20.63;13.90;;;11.40;99.90;;;10.94;100.00;97892.56;4963228;28;20030;-65
2022/10/12 05:03:27;;;;;;;19.20;13.10;;;11.40;99.90;;;10.99;100.00;97897.72;4958360;28;20041;-65
2022/10/12 05:05:53;;;;;;;21.42;13.60;;;11.50;99.90;;;11.03;100.00;97894.06;4969353;28;20034;-65
2022/10/12 05:08:19;;;;;;;17.60;12.73;;;11.50;99.90;;;11.04;100.00;97896.66;4967760;28;20362;-65
2022/10/12 05:10:45;;;;;;;18.02;12.75;;;11.50;99.90;;;11.08;100.00;97900.09;4964825;28;21022;-65
2022/10/12 05:13:12;;;;;;;18.73;12.77;;;11.50;99.90;;;11.10;100.00;97908.81;4958965;28;20506;-66
2022/10/12 05:15:38;;;;;;;20.48;13.13;;;11.50;99.90;;;11.08;100.00;97894.81;4967135;28;20038;-66
2022/10/12 05:18:04;;;;;;;17.67;13.05;;;11.60;99.90;;;11.11;100.00;97900.00;4952084;28;20381;-64
2022/10/12 05:20:30;;;;;;;18.92;12.55;;;11.60;99.90;;;11.12;100.00;97901.69;4966090;28;20038;-65
2022/10/12 05:22:58;;;;;;;19.27;13.07;;;11.60;99.90;;;11.12;100.00;97895.56;4968909;28;20805;-65
2022/10/12 05:25:25;;;;;;;17.08;12.50;;;11.60;99.90;;;11.12;100.00;97895.56;4970003;28;20026;-64
2022/10/12 05:27:50;;;;;;;19.33;12.98;;;11.60;99.90;;;11.11;100.00;97900.00;4958088;28;20125;-65
2022/10/12 05:30:16;;;;;;;21.63;13.68;;;11.60;99.90;;;11.12;100.00;97892.94;4965433;28;20044;-65
2022/10/12 05:32:43;;;;;;;19.73;11.73;;;11.60;99.90;;;11.08;100.00;97885.09;4962349;28;20034;-66
2022/10/12 05:35:10;;;;;;;17.35;12.13;;;11.60;99.90;;;11.10;100.00;97887.69;4956111;28;20082;-65
2022/10/12 05:37:35;;;;;;;16.20;12.68;;;11.60;99.90;;;11.15;100.00;97891.06;4952332;28;20054;-65
2022/10/12 05:40:01;;;;;;;20.15;12.02;;;11.60;99.90;;;11.15;100.00;97898.97;4974031;28;20125;-64
2022/10/12 05:42:27;;;;;;;20.30;13.63;;;11.70;99.90;;;11.17;100.00;97889.22;4971248;28;20031;-64
2022/10/12 05:44:53;;;;;;;20.65;14.50;;;11.60;99.90;;;11.19;100.00;97892.69;4952952;28;20045;-65
2022/10/12 05:47:18;;;;;;;18.73;13.70;;;11.70;99.90;;;11.21;100.00;97893.50;4972880;28;20760;-65
2022/10/12 05:49:44;;;;;;;18.85;12.93;;;11.70;99.90;;;11.23;100.00;97896.97;4965909;28;20068;-64
2022/10/12 05:52:10;;;;;;;19.40;13.20;;;11.70;99.90;;;11.25;100.00;97897.78;4973422;28;20385;-64
2022/10/12 05:54:35;;;;;;;22.63;13.52;;;11.70;99.90;;;11.27;100.00;97903.88;4971048;28;20042;-63
2022/10/12 05:57:01;;;;;;;17.45;13.13;;;11.70;99.90;;;11.31;100.00;97906.44;4968656;28;20495;-64
2022/10/12 05:59:27;;;;;;;18.90;13.02;;;11.80;99.90;;;11.31;100.00;97902.00;4970330;28;20050;-64
2022/10/12 06:01:52;;;;;;;20.42;13.07;;;11.80;99.90;;;11.33;100.00;97905.44;4965002;28;20476;-64
2022/10/12 06:04:18;;;;;;;17.67;13.02;;;11.80;99.90;;;11.34;100.00;97906.31;4968270;28;20123;-65
2022/10/12 06:06:44;;;;;;;14.23;11.68;;;11.80;99.90;;;11.35;100.00;97911.53;4970542;28;20499;-64
2022/10/12 06:09:11;;;;;;;19.05;12.52;;;11.90;99.90;;;11.39;100.00;97907.88;4951899;28;20096;-65
2022/10/12 06:11:36;;;;;;;19.63;13.30;;;11.90;99.90;;;11.44;100.00;97907.75;4965371;28;20054;-64
2022/10/12 06:14:03;;;;;;;18.35;13.35;;;11.90;99.90;;;11.49;100.00;97912.91;4969996;28;21633;-64
2022/10/12 06:16:28;;;;;;;16.25;12.65;;;12.00;99.90;;;11.54;100.00;97913.59;4968683;28;20114;-64
2022/10/12 06:18:54;;;;;;;18.73;13.15;;;12.00;99.90;;;11.57;100.00;97911.72;4967322;28;20030;-65
2022/10/12 06:21:20;;;;;;;16.95;12.55;;;12.10;99.90;;;11.58;100.00;97905.53;4973730;28;20073;-65
2022/10/12 06:23:45;;;;;;;19.05;13.10;;;12.10;99.90;;;11.68;100.00;97910.50;4969471;28;20397;-64
2022/10/12 06:26:12;;;;;;;18.38;13.15;;;12.20;99.90;;;11.73;100.00;97911.22;4972609;28;20412;-64
2022/10/12 06:28:37;;;;;;;16.20;12.18;;;12.20;99.90;;;11.77;100.00;97908.44;4966176;28;20065;-64
2022/10/12 06:31:03;;;;;;;20.50;13.80;;;12.30;99.90;;;11.84;100.00;97917.00;4969554;28;20041;-65
2022/10/12 06:33:29;;;;;;;21.95;13.65;;;12.30;99.90;;;11.91;100.00;97918.53;4973572;28;20082;-64
2022/10/12 06:35:55;;;;;;;22.75;14.98;;;12.40;99.90;;;11.96;100.00;97911.31;4949594;28;20031;-64
2022/10/12 06:38:21;;;;;;;16.35;11.63;;;12.40;99.90;;;12.02;100.00;97919.06;4970934;28;20070;-64
2022/10/12 06:40:47;;;;;;;13.32;9.57;;;12.50;99.90;;;12.07;100.00;97923.31;4967920;28;20077;-64
2022/10/12 06:43:13;;;;;;;14.13;9.05;;;12.50;99.90;;;12.13;100.00;97925.72;4967855;28;20049;-64
2022/10/12 06:45:39;;;;;;;14.38;9.38;;;12.60;99.90;;;12.19;100.00;97922.91;4965912;28;20027;-64
2022/10/12 06:48:07;;;;;;;18.45;11.10;;;12.70;99.90;;;12.22;100.00;97923.66;4973384;28;20043;-64
2022/10/12 06:50:33;;;;;;;17.30;11.40;;;12.70;99.90;;;12.26;100.00;97926.16;4967437;28;20045;-66
2022/10/12 06:52:58;;;;;;;12.40;8.65;;;12.80;99.90;;;12.32;100.00;97925.97;4968429;28;20077;-64
2022/10/12 06:55:24;;;;;;;15.95;10.23;;;12.80;99.90;;;12.35;100.00;97924.06;4963405;28;20034;-57
2022/10/12 06:57:50;;;;;;;17.52;10.40;;;12.80;99.90;;;12.39;100.00;97933.63;4966983;28;20157;-62
2022/10/12 07:00:16;;;;;;;13.45;9.50;;;12.90;99.90;;;12.42;100.00;97924.72;4970242;28;20058;-63
2022/10/12 07:02:41;;;;;;;18.48;10.32;;;12.90;99.90;;;12.45;100.00;97929.88;4969356;28;20064;-62
2022/10/12 07:05:08;;;;;;;14.27;9.90;;;12.90;99.90;;;12.47;100.00;97929.84;4963762;28;20400;-62
2022/10/12 07:07:35;;;;;;;19.05;10.95;;;12.90;99.90;;;12.48;100.00;97928.94;4957904;28;20140;-63
2022/10/12 07:10:03;;;;;;;15.43;10.32;;;12.90;99.90;;;12.51;100.00;97934.13;4967785;28;20188;-63
2022/10/12 07:12:29;;;;;;;14.50;11.75;;;12.90;99.90;;;12.50;100.00;97922.66;4966089;28;20129;-63
2022/10/12 07:14:55;;;;;;;23.42;15.05;;;13.00;99.90;;;12.59;100.00;97926.75;4959649;28;20034;-63
2022/10/12 07:17:21;;;;;;;20.88;13.55;;;13.00;99.90;;;12.72;100.00;97925.38;4959982;28;20039;-63
2022/10/12 07:19:46;;;;;;;20.52;13.65;;;13.20;99.90;;;12.86;100.00;97926.66;4966333;28;20476;-63
2022/10/12 07:22:12;;;;;;;21.17;14.88;;;13.30;99.90;;;12.98;100.00;97927.03;4972925;28;20065;-63
2022/10/12 07:24:38;;;;;;;24.58;15.10;;;13.40;99.90;;;13.13;100.00;97927.38;4973753;28;20062;-62
2022/10/12 07:27:08;;;;;;;21.52;13.40;;;13.60;99.90;;;13.30;100.00;97929.38;4974859;28;20038;-62
2022/10/12 07:29:34;;;;;;;18.05;12.02;;;13.70;99.90;;;13.44;100.00;97926.19;4973305;28;20122;-62
2022/10/12 07:32:00;;;;;;;25.52;15.18;;;13.90;99.90;;;13.53;100.00;97918.75;4976226;28;20042;-61
2022/10/12 07:34:27;;;;;;;33.35;17.90;;;14.00;99.90;;;13.55;100.00;97930.13;4958086;28;20535;-62
2022/10/12 07:36:54;;;;;;;27.88;15.40;;;14.10;99.90;;;13.70;100.00;97928.66;4972127;28;20034;-61
2022/10/12 07:39:21;;;;;;;19.95;13.95;;;14.20;99.90;;;13.82;100.00;97927.28;4971653;28;20503;-60
2022/10/12 07:41:49;;;;;;;20.50;13.40;;;14.30;99.90;;;13.89;100.00;97923.44;4970769;28;21013;-60
2022/10/12 07:44:15;;;;;;;19.73;14.45;;;14.40;99.90;;;13.97;100.00;97928.44;4975115;28;20419;-61
2022/10/12 07:46:41;;;;;;;22.55;13.43;;;14.50;99.90;;;14.05;100.00;97933.41;4973358;28;20046;-60
2022/10/12 07:49:07;;;;;;;21.58;12.77;;;14.50;99.90;;;14.13;100.00;97928.63;4973678;28;20038;-61
2022/10/12 07:51:33;;;;;;;25.42;14.38;;;14.60;99.90;;;14.12;100.00;97922.47;4974770;28;20397;-61
2022/10/12 07:53:59;;;;;;;23.70;15.38;;;14.60;99.90;;;14.14;100.00;97917.13;4973548;28;20038;-61
2022/10/12 07:56:25;;;;;;;23.67;16.00;;;14.70;99.90;;;14.18;100.00;97924.00;4972896;28;20472;-61
2022/10/12 07:58:53;;;;;;;24.95;15.25;;;14.70;99.90;;;14.18;100.00;97921.34;4971588;28;20066;-61
2022/10/12 08:01:22;;;;;;;24.00;15.82;;;14.70;99.90;;;14.27;100.00;97930.72;4972649;28;20468;-61
2022/10/12 08:03:48;;;;;;;20.05;13.27;;;14.70;99.90;;;14.33;100.00;97925.97;4970341;28;20045;-61
2022/10/12 08:06:18;;;;;;;24.17;16.17;;;14.80;99.90;;;14.36;100.00;97927.66;4974998;28;20083;-61
2022/10/12 08:08:44;;;;;;;23.60;14.00;;;14.90;99.90;;;14.48;100.00;97932.41;4971016;28;20038;-61
2022/10/12 08:11:11;;;;;;;24.73;15.27;;;15.00;99.90;;;14.58;100.00;97937.34;4974495;28;20034;-61
2022/10/12 08:13:37;;;;;;;21.90;14.65;;;15.10;99.90;;;14.68;100.00;97938.66;4973793;28;20034;-61
2022/10/12 08:16:05;;;;;;;19.02;13.88;;;15.10;99.90;;;14.76;100.00;97941.81;4973771;28;20058;-61
2022/10/12 08:18:31;;;;;;;22.23;12.68;;;15.20;99.90;;;14.84;100.00;97945.00;4971414;28;20061;-62
2022/10/12 08:20:57;;;;;;;20.42;11.55;;;15.30;99.90;;;14.95;100.00;97944.50;4956241;28;20125;-61
2022/10/12 08:23:23;;;;;;;20.48;13.68;;;15.40;99.90;;;15.02;100.00;97938.00;4971914;28;20161;-62
2022/10/12 08:25:53;;;;;;;22.85;13.25;;;15.50;99.90;;;15.12;100.00;97950.84;4973057;28;20504;-61
2022/10/12 08:28:19;;;;;;;24.38;14.65;;;15.60;99.90;;;15.19;100.00;97954.94;4974760;28;20038;-61
2022/10/12 08:30:44;;;;;;;24.38;15.10;;;15.70;99.90;;;15.26;100.00;97943.94;4970738;28;20054;-62
2022/10/12 08:33:12;;;;;;;18.38;12.75;;;15.80;99.90;;;15.39;100.00;97946.00;4974326;28;20034;-61
2022/10/12 08:35:39;;;;;;;21.88;13.48;;;15.80;99.90;;;15.49;100.00;97952.63;4973481;28;20105;-61
2022/10/12 08:38:05;;;;;;;20.70;13.30;;;15.90;99.90;;;15.60;100.00;97947.63;4975498;28;20033;-61
2022/10/12 08:40:35;;;;;;;19.95;11.90;;;16.00;99.90;;;15.70;100.00;97955.16;4971817;28;20030;-61
2022/10/12 08:43:34;;;;;;;24.00;15.48;;;16.20;99.90;;;15.78;100.00;97948.56;4957958;28;20487;-61
2022/10/12 08:46:02;;;;;;;27.63;16.02;;;16.20;99.90;;;15.74;100.00;97943.44;4978701;28;20042;-61
2022/10/12 08:48:33;;;;;;;21.80;14.07;;;16.20;99.90;;;15.81;100.00;97948.44;4977820;28;20041;-61
2022/10/12 08:51:05;;;;;;;24.10;13.93;;;16.20;99.90;;;15.81;100.00;97950.22;4960007;28;20034;-62
2022/10/12 08:53:38;;;;;;;22.23;13.40;;;16.20;99.90;;;15.88;100.00;97948.09;4977418;28;20042;-61
2022/10/12 08:56:04;;;;;;;19.08;12.32;;;16.30;99.90;;;15.95;100.00;97933.56;4962070;28;20400;-62
2022/10/12 08:58:34;;;;;;;22.13;14.10;;;16.30;99.90;;;16.06;100.00;97930.34;4976581;28;20045;-62
2022/10/12 09:01:19;;;;;;;22.60;14.43;;;16.50;99.90;;;16.16;100.00;97936.94;4975154;28;20100;-62
2022/10/12 09:04:02;;;;;;;24.05;14.55;;;16.50;99.90;;;16.20;100.00;97930.50;4957922;28;20473;-62
2022/10/12 09:06:40;;;;;;;24.02;14.90;;;16.60;99.90;;;16.13;100.00;97926.44;4979285;28;20113;-61
2022/10/12 09:09:21;;;;;;;28.15;14.55;;;16.60;99.90;;;16.25;100.00;97938.28;4961259;28;20041;-62
2022/10/12 09:12:05;;;;;;;25.73;15.13;;;16.70;99.90;;;16.19;100.00;97932.31;4974797;28;20515;-61
2022/10/12 09:14:36;;;;;;;25.33;14.02;;;16.70;99.90;;;16.14;100.00;97934.34;4976278;28;20044;-62
2022/10/12 09:17:23;;;;;;;21.90;13.18;;;16.60;99.90;;;16.16;100.00;97935.13;4973689;28;20546;-61
2022/10/12 09:20:16;;;;;;;20.30;14.32;;;16.60;99.90;;;16.17;100.00;97934.22;4975937;28;20189;-61
2022/10/12 09:22:50;;;;;;;21.05;12.88;;;16.70;99.90;;;16.27;100.00;97939.91;4970962;28;20043;-61
2022/10/12 09:25:18;;;;;;;22.02;12.60;;;16.70;99.90;;;16.26;100.00;97937.31;4978042;28;20045;-62
2022/10/12 09:27:46;;;;;;;20.17;12.68;;;16.70;99.90;;;16.14;100.00;97938.81;5010949;23;20041;-42
2022/10/12 09:30:14;;;;;;;21.02;12.30;;;16.60;99.90;;;16.19;100.00;97942.13;4997876;28;20061;-42
2022/10/12 09:32:55;;;;;;;21.25;13.18;;;16.60;99.90;;;16.10;100.00;97945.25;4998972;28;20038;-44
2022/10/12 09:35:21;;;;;;;21.85;14.38;;;16.50;99.90;;;15.93;100.00;97946.09;4999874;28;20033;-44
2022/10/12 09:37:51;;;;;;;18.85;13.07;;;16.40;99.90;;;15.94;100.00;97956.66;4994494;28;20038;-46
2022/10/12 09:40:32;;;;;;;19.25;11.93;;;16.40;99.90;;;15.95;100.00;97958.38;4996246;28;20038;-46
2022/10/12 09:43:02;;;;;;;23.25;11.55;;;16.40;99.90;;;16.00;100.00;97961.66;4996959;28;20046;-44
2022/10/12 09:45:32;;;;;;;19.13;11.20;;;16.40;99.90;;;16.10;100.00;97961.22;4993307;28;20034;-45
2022/10/12 09:48:22;;;;;;;23.90;13.63;;;16.50;99.90;;;16.14;100.00;97963.63;4994637;28;20118;-45
2022/10/12 09:50:57;;;;;;;21.45;13.30;;;16.60;99.90;;;16.13;100.00;97958.38;4995466;28;20044;-45
2022/10/12 09:53:34;;;;;;;17.13;10.02;;;16.60;99.90;;;16.21;100.00;97958.88;4994204;28;20052;-46
2022/10/12 09:56:12;;;;;;;17.20;10.85;;;16.60;99.90;;;16.19;100.00;97955.44;4996543;28;20022;-45
2022/10/12 09:58:52;;;;;;;20.42;12.05;;;16.60;99.90;;;16.19;100.00;97953.63;4995550;28;20025;-47
2022/10/12 10:01:27;;;;;;;15.02;9.38;;;16.60;99.90;;;16.13;100.00;97966.34;4993254;28;20029;-45
2022/10/12 10:04:22;;;;;;;17.20;11.10;;;16.60;99.90;;;16.08;100.00;97953.31;4994878;28;20202;-45
2022/10/12 10:06:48;;;;;;;16.27;10.43;;;16.50;99.90;;;16.13;100.00;97959.25;4996898;28;20026;-43
2022/10/12 10:09:34;;;;;;;16.42;9.65;;;16.50;99.90;;;16.11;100.00;97942.47;4996527;28;20048;-45
2022/10/12 10:12:27;;;;;;;17.80;10.70;;;16.50;99.90;;;16.02;100.00;97930.53;4994287;28;20515;-44